Terminal Aerodrome Forecast
Issued by NWS Tampa Bay Area, FL

Home | Current Version | Previous Version | Text Only | Print | Product List | Glossary On
Versions: 1 2 3 4 5 6 7 8 9 10 11 12 13 14
000
FTUS42 KTBW 110500
TAFSRQ
TAF
KSRQ 110529Z 1106/1206 VRB04KT P6SM FEW025 SCT250
     FM111500 15006KT P6SM SCT030 SCT150
     FM111800 26008KT P6SM VCTS SCT035CB SCT150
     FM112200 29007KT P6SM VCTS BKN040CB BKN200
     FM120200 08004KT P6SM BKN200=

USA.gov is the U.S. government's official web portal to all federal, state and local government web resources and services.